sensor_id;sensor_type;location;lat;lon;timestamp;P1;durP1;ratioP1;P2;durP2;ratioP2
20166;SDS011;10243;49.118;8.508;2022-07-29T00:00:16;6.85;;;5.45;;
20166;SDS011;10243;49.118;8.508;2022-07-29T00:03:18;6.03;;;5.38;;
20166;SDS011;10243;49.118;8.508;2022-07-29T00:06:20;6.18;;;5.28;;
20166;SDS011;10243;49.118;8.508;2022-07-29T00:09:22;5.85;;;5.22;;
20166;SDS011;10243;49.118;8.508;2022-07-29T00:12:26;5.18;;;4.78;;
20166;SDS011;10243;49.118;8.508;2022-07-29T00:15:28;7.65;;;5.22;;
20166;SDS011;10243;49.118;8.508;2022-07-29T00:18:30;8.65;;;5.13;;
20166;SDS011;10243;49.118;8.508;2022-07-29T00:21:32;6.13;;;4.90;;
20166;SDS011;10243;49.118;8.508;2022-07-29T00:24:35;6.68;;;5.00;;
20166;SDS011;10243;49.118;8.508;2022-07-29T00:27:38;6.38;;;5.78;;
20166;SDS011;10243;49.118;8.508;2022-07-29T00:30:40;6.47;;;5.55;;
20166;SDS011;10243;49.118;8.508;2022-07-29T00:33:43;7.63;;;5.43;;
20166;SDS011;10243;49.118;8.508;2022-07-29T00:36:45;6.43;;;5.38;;
20166;SDS011;10243;49.118;8.508;2022-07-29T00:39:47;6.30;;;5.15;;
20166;SDS011;10243;49.118;8.508;2022-07-29T00:42:50;5.70;;;5.20;;
20166;SDS011;10243;49.118;8.508;2022-07-29T00:45:53;6.57;;;5.78;;
20166;SDS011;10243;49.118;8.508;2022-07-29T00:48:55;7.28;;;5.30;;
20166;SDS011;10243;49.118;8.508;2022-07-29T00:51:57;7.07;;;5.70;;
20166;SDS011;10243;49.118;8.508;2022-07-29T00:55:00;8.43;;;5.40;;
20166;SDS011;10243;49.118;8.508;2022-07-29T00:58:03;10.23;;;5.40;;
20166;SDS011;10243;49.118;8.508;2022-07-29T01:01:05;7.43;;;5.07;;
20166;SDS011;10243;49.118;8.508;2022-07-29T01:04:08;5.90;;;5.40;;
20166;SDS011;10243;49.118;8.508;2022-07-29T01:07:10;7.82;;;5.68;;
20166;SDS011;10243;49.118;8.508;2022-07-29T01:10:13;6.30;;;5.70;;
20166;SDS011;10243;49.118;8.508;2022-07-29T01:13:17;6.03;;;5.40;;
20166;SDS011;10243;49.118;8.508;2022-07-29T01:16:21;5.93;;;5.25;;
20166;SDS011;10243;49.118;8.508;2022-07-29T01:19:33;6.13;;;5.53;;
20166;SDS011;10243;49.118;8.508;2022-07-29T01:22:43;9.07;;;5.28;;
20166;SDS011;10243;49.118;8.508;2022-07-29T01:29:12;6.20;;;5.30;;
20166;SDS011;10243;49.118;8.508;2022-07-29T01:32:18;5.90;;;5.40;;
20166;SDS011;10243;49.118;8.508;2022-07-29T01:35:22;6.18;;;5.15;;
20166;SDS011;10243;49.118;8.508;2022-07-29T01:38:25;6.00;;;5.40;;
20166;SDS011;10243;49.118;8.508;2022-07-29T01:41:31;6.90;;;5.45;;
20166;SDS011;10243;49.118;8.508;2022-07-29T01:44:38;7.10;;;5.55;;
20166;SDS011;10243;49.118;8.508;2022-07-29T01:47:42;9.75;;;5.43;;
20166;SDS011;10243;49.118;8.508;2022-07-29T01:50:56;8.98;;;5.47;;
20166;SDS011;10243;49.118;8.508;2022-07-29T01:54:01;7.28;;;5.28;;
20166;SDS011;10243;49.118;8.508;2022-07-29T01:57:04;6.18;;;5.57;;
20166;SDS011;10243;49.118;8.508;2022-07-29T02:00:10;5.47;;;5.07;;
20166;SDS011;10243;49.118;8.508;2022-07-29T02:03:15;6.10;;;5.50;;
20166;SDS011;10243;49.118;8.508;2022-07-29T02:06:19;6.13;;;5.60;;
20166;SDS011;10243;49.118;8.508;2022-07-29T02:09:22;9.00;;;5.15;;
20166;SDS011;10243;49.118;8.508;2022-07-29T02:12:25;7.50;;;5.70;;
20166;SDS011;10243;49.118;8.508;2022-07-29T02:15:29;7.47;;;5.32;;
20166;SDS011;10243;49.118;8.508;2022-07-29T02:18:32;7.82;;;5.35;;
20166;SDS011;10243;49.118;8.508;2022-07-29T02:21:35;5.70;;;5.18;;
20166;SDS011;10243;49.118;8.508;2022-07-29T02:24:38;7.93;;;5.93;;
20166;SDS011;10243;49.118;8.508;2022-07-29T02:27:40;7.22;;;5.97;;
20166;SDS011;10243;49.118;8.508;2022-07-29T02:30:45;8.43;;;5.47;;
20166;SDS011;10243;49.118;8.508;2022-07-29T02:33:48;7.32;;;5.63;;
20166;SDS011;10243;49.118;8.508;2022-07-29T02:36:50;6.53;;;5.90;;
20166;SDS011;10243;49.118;8.508;2022-07-29T02:39:54;5.93;;;5.30;;
20166;SDS011;10243;49.118;8.508;2022-07-29T02:42:56;7.20;;;6.03;;
20166;SDS011;10243;49.118;8.508;2022-07-29T02:46:00;11.85;;;6.07;;
20166;SDS011;10243;49.118;8.508;2022-07-29T02:49:07;13.73;;;6.35;;
20166;SDS011;10243;49.118;8.508;2022-07-29T02:52:12;6.95;;;6.28;;
20166;SDS011;10243;49.118;8.508;2022-07-29T02:55:15;7.82;;;6.45;;
20166;SDS011;10243;49.118;8.508;2022-07-29T02:58:19;10.25;;;6.47;;
20166;SDS011;10243;49.118;8.508;2022-07-29T03:01:28;12.90;;;6.25;;
20166;SDS011;10243;49.118;8.508;2022-07-29T03:04:32;6.60;;;5.95;;
20166;SDS011;10243;49.118;8.508;2022-07-29T03:07:36;6.60;;;6.10;;
20166;SDS011;10243;49.118;8.508;2022-07-29T03:10:39;7.13;;;6.43;;
20166;SDS011;10243;49.118;8.508;2022-07-29T03:13:44;8.13;;;5.93;;
20166;SDS011;10243;49.118;8.508;2022-07-29T03:16:48;8.30;;;6.47;;
20166;SDS011;10243;49.118;8.508;2022-07-29T03:19:51;7.22;;;6.50;;
20166;SDS011;10243;49.118;8.508;2022-07-29T03:22:53;7.18;;;6.57;;
20166;SDS011;10243;49.118;8.508;2022-07-29T03:25:56;7.18;;;6.65;;
20166;SDS011;10243;49.118;8.508;2022-07-29T03:28:59;7.38;;;6.72;;
20166;SDS011;10243;49.118;8.508;2022-07-29T03:32:04;7.75;;;7.00;;
20166;SDS011;10243;49.118;8.508;2022-07-29T03:35:06;12.20;;;7.35;;
20166;SDS011;10243;49.118;8.508;2022-07-29T03:38:09;7.78;;;7.18;;
20166;SDS011;10243;49.118;8.508;2022-07-29T03:41:11;7.95;;;7.28;;
20166;SDS011;10243;49.118;8.508;2022-07-29T03:44:15;7.72;;;7.05;;
20166;SDS011;10243;49.118;8.508;2022-07-29T03:47:20;8.30;;;7.38;;
20166;SDS011;10243;49.118;8.508;2022-07-29T03:50:26;13.68;;;7.25;;
20166;SDS011;10243;49.118;8.508;2022-07-29T03:53:28;9.32;;;7.35;;
20166;SDS011;10243;49.118;8.508;2022-07-29T03:56:32;8.63;;;7.85;;
20166;SDS011;10243;49.118;8.508;2022-07-29T03:59:36;8.35;;;7.60;;
20166;SDS011;10243;49.118;8.508;2022-07-29T04:02:40;14.57;;;7.22;;
20166;SDS011;10243;49.118;8.508;2022-07-29T04:05:45;9.00;;;7.93;;
20166;SDS011;10243;49.118;8.508;2022-07-29T04:08:47;8.18;;;7.28;;
20166;SDS011;10243;49.118;8.508;2022-07-29T04:11:49;12.88;;;7.20;;
20166;SDS011;10243;49.118;8.508;2022-07-29T04:14:51;8.32;;;7.47;;
20166;SDS011;10243;49.118;8.508;2022-07-29T04:17:55;8.43;;;7.63;;
20166;SDS011;10243;49.118;8.508;2022-07-29T04:20:57;10.55;;;7.63;;
20166;SDS011;10243;49.118;8.508;2022-07-29T04:24:00;11.45;;;8.05;;
20166;SDS011;10243;49.118;8.508;2022-07-29T04:27:03;8.50;;;7.80;;
20166;SDS011;10243;49.118;8.508;2022-07-29T04:30:05;8.73;;;7.85;;
20166;SDS011;10243;49.118;8.508;2022-07-29T04:33:09;8.70;;;7.95;;
20166;SDS011;10243;49.118;8.508;2022-07-29T04:36:12;8.68;;;7.85;;
20166;SDS011;10243;49.118;8.508;2022-07-29T04:39:14;8.23;;;7.63;;
20166;SDS011;10243;49.118;8.508;2022-07-29T04:42:18;8.52;;;7.72;;
20166;SDS011;10243;49.118;8.508;2022-07-29T04:45:20;8.45;;;7.60;;
20166;SDS011;10243;49.118;8.508;2022-07-29T04:48:24;12.90;;;8.25;;
20166;SDS011;10243;49.118;8.508;2022-07-29T04:51:26;16.35;;;7.93;;
20166;SDS011;10243;49.118;8.508;2022-07-29T04:54:28;8.18;;;7.40;;
20166;SDS011;10243;49.118;8.508;2022-07-29T04:57:30;10.55;;;7.43;;
20166;SDS011;10243;49.118;8.508;2022-07-29T05:00:32;20.52;;;8.25;;
20166;SDS011;10243;49.118;8.508;2022-07-29T05:03:36;16.67;;;8.18;;
20166;SDS011;10243;49.118;8.508;2022-07-29T05:06:38;22.55;;;8.43;;
20166;SDS011;10243;49.118;8.508;2022-07-29T05:09:40;16.73;;;7.78;;
20166;SDS011;10243;49.118;8.508;2022-07-29T05:12:43;15.50;;;8.75;;
20166;SDS011;10243;49.118;8.508;2022-07-29T05:15:45;14.00;;;9.00;;
20166;SDS011;10243;49.118;8.508;2022-07-29T05:18:48;14.50;;;9.50;;
20166;SDS011;10243;49.118;8.508;2022-07-29T05:21:51;13.98;;;9.25;;
20166;SDS011;10243;49.118;8.508;2022-07-29T05:24:53;16.63;;;10.27;;
20166;SDS011;10243;49.118;8.508;2022-07-29T05:27:55;20.33;;;10.23;;
20166;SDS011;10243;49.118;8.508;2022-07-29T05:30:58;9.85;;;8.43;;
20166;SDS011;10243;49.118;8.508;2022-07-29T05:34:01;22.52;;;9.68;;
20166;SDS011;10243;49.118;8.508;2022-07-29T05:37:03;13.30;;;9.82;;
20166;SDS011;10243;49.118;8.508;2022-07-29T05:40:06;14.00;;;9.27;;
20166;SDS011;10243;49.118;8.508;2022-07-29T05:43:08;11.15;;;9.30;;
20166;SDS011;10243;49.118;8.508;2022-07-29T05:46:10;10.75;;;7.88;;
20166;SDS011;10243;49.118;8.508;2022-07-29T05:49:15;10.27;;;8.00;;
20166;SDS011;10243;49.118;8.508;2022-07-29T05:52:18;16.67;;;8.20;;
20166;SDS011;10243;49.118;8.508;2022-07-29T05:55:20;13.68;;;7.68;;
20166;SDS011;10243;49.118;8.508;2022-07-29T05:58:22;13.73;;;7.40;;
20166;SDS011;10243;49.118;8.508;2022-07-29T06:01:24;16.17;;;7.72;;
20166;SDS011;10243;49.118;8.508;2022-07-29T06:04:28;13.75;;;7.85;;
20166;SDS011;10243;49.118;8.508;2022-07-29T06:07:30;9.93;;;8.38;;
20166;SDS011;10243;49.118;8.508;2022-07-29T06:10:33;11.15;;;8.10;;
20166;SDS011;10243;49.118;8.508;2022-07-29T06:13:36;14.10;;;8.32;;
20166;SDS011;10243;49.118;8.508;2022-07-29T06:16:38;11.70;;;7.50;;
20166;SDS011;10243;49.118;8.508;2022-07-29T06:19:42;11.93;;;7.88;;
20166;SDS011;10243;49.118;8.508;2022-07-29T06:22:44;8.10;;;7.40;;
20166;SDS011;10243;49.118;8.508;2022-07-29T06:25:46;13.40;;;7.93;;
20166;SDS011;10243;49.118;8.508;2022-07-29T06:28:48;10.70;;;7.80;;
20166;SDS011;10243;49.118;8.508;2022-07-29T06:31:51;10.40;;;8.27;;
20166;SDS011;10243;49.118;8.508;2022-07-29T06:34:54;14.00;;;7.82;;
20166;SDS011;10243;49.118;8.508;2022-07-29T06:37:56;13.90;;;7.97;;
20166;SDS011;10243;49.118;8.508;2022-07-29T06:40:59;9.38;;;7.95;;
20166;SDS011;10243;49.118;8.508;2022-07-29T06:44:02;9.15;;;7.88;;
20166;SDS011;10243;49.118;8.508;2022-07-29T06:47:04;12.50;;;7.60;;
20166;SDS011;10243;49.118;8.508;2022-07-29T06:50:08;10.38;;;7.50;;
20166;SDS011;10243;49.118;8.508;2022-07-29T06:53:12;7.28;;;6.60;;
20166;SDS011;10243;49.118;8.508;2022-07-29T06:56:14;12.80;;;7.10;;
20166;SDS011;10243;49.118;8.508;2022-07-29T06:59:18;10.35;;;7.28;;
20166;SDS011;10243;49.118;8.508;2022-07-29T07:02:20;9.60;;;6.63;;
20166;SDS011;10243;49.118;8.508;2022-07-29T07:05:23;13.38;;;7.20;;
20166;SDS011;10243;49.118;8.508;2022-07-29T07:08:26;13.18;;;6.90;;
20166;SDS011;10243;49.118;8.508;2022-07-29T07:11:28;13.77;;;6.55;;
20166;SDS011;10243;49.118;8.508;2022-07-29T07:14:30;17.10;;;5.93;;
20166;SDS011;10243;49.118;8.508;2022-07-29T07:17:32;11.77;;;7.03;;
20166;SDS011;10243;49.118;8.508;2022-07-29T07:20:36;6.85;;;5.95;;
20166;SDS011;10243;49.118;8.508;2022-07-29T07:23:38;7.72;;;6.00;;
20166;SDS011;10243;49.118;8.508;2022-07-29T07:26:41;8.68;;;6.28;;
20166;SDS011;10243;49.118;8.508;2022-07-29T07:29:43;8.52;;;5.90;;
20166;SDS011;10243;49.118;8.508;2022-07-29T07:32:45;8.20;;;6.20;;
20166;SDS011;10243;49.118;8.508;2022-07-29T07:35:49;15.82;;;5.47;;
20166;SDS011;10243;49.118;8.508;2022-07-29T07:38:51;10.43;;;5.43;;
20166;SDS011;10243;49.118;8.508;2022-07-29T07:41:53;8.20;;;5.97;;
20166;SDS011;10243;49.118;8.508;2022-07-29T07:44:55;8.70;;;6.13;;
20166;SDS011;10243;49.118;8.508;2022-07-29T07:47:57;14.23;;;5.97;;
20166;SDS011;10243;49.118;8.508;2022-07-29T07:51:01;7.15;;;5.55;;
20166;SDS011;10243;49.118;8.508;2022-07-29T07:54:03;10.32;;;6.15;;
20166;SDS011;10243;49.118;8.508;2022-07-29T07:57:06;15.05;;;5.30;;
20166;SDS011;10243;49.118;8.508;2022-07-29T08:00:08;8.05;;;5.80;;
20166;SDS011;10243;49.118;8.508;2022-07-29T08:03:14;6.05;;;5.47;;
20166;SDS011;10243;49.118;8.508;2022-07-29T08:06:18;8.98;;;5.45;;
20166;SDS011;10243;49.118;8.508;2022-07-29T08:09:20;9.23;;;5.65;;
20166;SDS011;10243;49.118;8.508;2022-07-29T08:12:22;6.30;;;5.55;;
20166;SDS011;10243;49.118;8.508;2022-07-29T08:15:25;8.07;;;5.57;;
20166;SDS011;10243;49.118;8.508;2022-07-29T08:18:28;11.25;;;5.20;;
20166;SDS011;10243;49.118;8.508;2022-07-29T08:21:32;8.05;;;5.40;;
20166;SDS011;10243;49.118;8.508;2022-07-29T08:24:34;7.25;;;5.38;;
20166;SDS011;10243;49.118;8.508;2022-07-29T08:27:52;8.98;;;5.50;;
20166;SDS011;10243;49.118;8.508;2022-07-29T08:30:54;6.10;;;5.50;;
20166;SDS011;10243;49.118;8.508;2022-07-29T08:33:56;6.78;;;5.35;;
20166;SDS011;10243;49.118;8.508;2022-07-29T08:37:01;5.25;;;4.85;;
20166;SDS011;10243;49.118;8.508;2022-07-29T08:40:03;14.30;;;5.22;;
20166;SDS011;10243;49.118;8.508;2022-07-29T08:43:06;7.85;;;4.90;;
20166;SDS011;10243;49.118;8.508;2022-07-29T08:46:09;6.15;;;5.03;;
20166;SDS011;10243;49.118;8.508;2022-07-29T08:49:11;6.85;;;4.70;;
20166;SDS011;10243;49.118;8.508;2022-07-29T08:52:15;5.90;;;4.75;;
20166;SDS011;10243;49.118;8.508;2022-07-29T08:55:17;8.73;;;5.00;;
20166;SDS011;10243;49.118;8.508;2022-07-29T08:58:20;11.15;;;5.20;;
20166;SDS011;10243;49.118;8.508;2022-07-29T09:01:23;6.18;;;5.22;;
20166;SDS011;10243;49.118;8.508;2022-07-29T09:04:27;9.45;;;4.63;;
20166;SDS011;10243;49.118;8.508;2022-07-29T09:07:30;4.97;;;4.45;;
20166;SDS011;10243;49.118;8.508;2022-07-29T09:10:34;8.68;;;4.35;;
20166;SDS011;10243;49.118;8.508;2022-07-29T09:13:36;9.02;;;4.13;;
20166;SDS011;10243;49.118;8.508;2022-07-29T09:16:43;7.80;;;4.35;;
20166;SDS011;10243;49.118;8.508;2022-07-29T09:19:46;5.55;;;4.65;;
20166;SDS011;10243;49.118;8.508;2022-07-29T09:22:49;14.48;;;4.70;;
20166;SDS011;10243;49.118;8.508;2022-07-29T09:25:53;5.47;;;4.90;;
20166;SDS011;10243;49.118;8.508;2022-07-29T09:28:55;8.70;;;4.55;;
20166;SDS011;10243;49.118;8.508;2022-07-29T09:31:58;6.65;;;4.65;;
20166;SDS011;10243;49.118;8.508;2022-07-29T09:35:19;10.63;;;4.25;;
20166;SDS011;10243;49.118;8.508;2022-07-29T09:38:23;6.00;;;3.97;;
20166;SDS011;10243;49.118;8.508;2022-07-29T09:41:25;5.40;;;4.15;;
20166;SDS011;10243;49.118;8.508;2022-07-29T09:44:40;7.93;;;4.32;;
20166;SDS011;10243;49.118;8.508;2022-07-29T09:47:43;8.45;;;3.97;;
20166;SDS011;10243;49.118;8.508;2022-07-29T09:50:49;5.97;;;4.22;;
20166;SDS011;10243;49.118;8.508;2022-07-29T09:53:53;14.10;;;4.20;;
20166;SDS011;10243;49.118;8.508;2022-07-29T09:56:56;9.23;;;3.88;;
20166;SDS011;10243;49.118;8.508;2022-07-29T09:59:59;13.13;;;4.55;;
20166;SDS011;10243;49.118;8.508;2022-07-29T10:03:12;11.93;;;3.92;;
20166;SDS011;10243;49.118;8.508;2022-07-29T10:06:14;4.75;;;4.20;;
20166;SDS011;10243;49.118;8.508;2022-07-29T10:09:18;12.43;;;4.20;;
20166;SDS011;10243;49.118;8.508;2022-07-29T10:12:20;6.93;;;3.92;;
20166;SDS011;10243;49.118;8.508;2022-07-29T10:15:23;9.23;;;3.28;;
20166;SDS011;10243;49.118;8.508;2022-07-29T10:18:26;6.53;;;3.72;;
20166;SDS011;10243;49.118;8.508;2022-07-29T10:21:28;8.27;;;3.45;;
20166;SDS011;10243;49.118;8.508;2022-07-29T10:24:34;6.95;;;3.70;;
20166;SDS011;10243;49.118;8.508;2022-07-29T10:27:37;7.68;;;3.58;;
20166;SDS011;10243;49.118;8.508;2022-07-29T10:30:40;13.07;;;4.00;;
20166;SDS011;10243;49.118;8.508;2022-07-29T10:33:46;4.38;;;3.85;;
20166;SDS011;10243;49.118;8.508;2022-07-29T10:36:52;10.98;;;3.88;;
20166;SDS011;10243;49.118;8.508;2022-07-29T10:40:00;7.72;;;3.45;;
20166;SDS011;10243;49.118;8.508;2022-07-29T10:43:24;5.80;;;3.60;;
20166;SDS011;10243;49.118;8.508;2022-07-29T10:46:27;4.00;;;3.60;;
20166;SDS011;10243;49.118;8.508;2022-07-29T10:49:29;11.07;;;3.28;;
20166;SDS011;10243;49.118;8.508;2022-07-29T10:56:05;11.15;;;3.92;;
20166;SDS011;10243;49.118;8.508;2022-07-29T10:59:24;4.88;;;3.90;;
20166;SDS011;10243;49.118;8.508;2022-07-29T11:02:40;7.60;;;3.92;;
20166;SDS011;10243;49.118;8.508;2022-07-29T11:05:53;8.32;;;4.00;;
20166;SDS011;10243;49.118;8.508;2022-07-29T11:15:53;9.32;;;3.90;;
20166;SDS011;10243;49.118;8.508;2022-07-29T11:22:31;5.22;;;4.10;;
20166;SDS011;10243;49.118;8.508;2022-07-29T11:25:33;7.30;;;4.03;;
20166;SDS011;10243;49.118;8.508;2022-07-29T11:28:36;9.00;;;3.75;;
20166;SDS011;10243;49.118;8.508;2022-07-29T11:31:43;6.63;;;4.20;;
20166;SDS011;10243;49.118;8.508;2022-07-29T11:34:46;4.38;;;3.75;;
20166;SDS011;10243;49.118;8.508;2022-07-29T11:38:23;9.13;;;4.00;;
20166;SDS011;10243;49.118;8.508;2022-07-29T11:41:24;6.95;;;3.97;;
20166;SDS011;10243;49.118;8.508;2022-07-29T11:47:47;11.10;;;4.07;;
20166;SDS011;10243;49.118;8.508;2022-07-29T11:50:49;6.78;;;4.32;;
20166;SDS011;10243;49.118;8.508;2022-07-29T11:53:51;5.65;;;3.72;;
20166;SDS011;10243;49.118;8.508;2022-07-29T11:56:55;8.07;;;4.07;;
20166;SDS011;10243;49.118;8.508;2022-07-29T11:59:58;5.32;;;4.07;;
20166;SDS011;10243;49.118;8.508;2022-07-29T12:03:01;3.97;;;3.63;;
20166;SDS011;10243;49.118;8.508;2022-07-29T12:06:10;11.02;;;4.03;;
20166;SDS011;10243;49.118;8.508;2022-07-29T12:09:14;5.72;;;3.40;;
20166;SDS011;10243;49.118;8.508;2022-07-29T12:12:19;13.75;;;3.75;;
20166;SDS011;10243;49.118;8.508;2022-07-29T12:15:22;8.90;;;3.80;;
20166;SDS011;10243;49.118;8.508;2022-07-29T12:18:25;4.40;;;3.80;;
20166;SDS011;10243;49.118;8.508;2022-07-29T12:21:28;6.43;;;3.95;;
20166;SDS011;10243;49.118;8.508;2022-07-29T12:24:42;5.13;;;3.80;;
20166;SDS011;10243;49.118;8.508;2022-07-29T12:27:45;14.40;;;3.88;;
20166;SDS011;10243;49.118;8.508;2022-07-29T12:30:48;6.18;;;3.60;;
20166;SDS011;10243;49.118;8.508;2022-07-29T12:33:51;12.93;;;3.85;;
20166;SDS011;10243;49.118;8.508;2022-07-29T12:36:54;4.85;;;3.38;;
20166;SDS011;10243;49.118;8.508;2022-07-29T12:39:56;8.50;;;3.72;;
20166;SDS011;10243;49.118;8.508;2022-07-29T12:43:06;8.23;;;4.10;;
20166;SDS011;10243;49.118;8.508;2022-07-29T12:46:12;4.30;;;3.78;;
20166;SDS011;10243;49.118;8.508;2022-07-29T12:49:20;6.10;;;3.75;;
20166;SDS011;10243;49.118;8.508;2022-07-29T12:52:23;5.28;;;3.65;;
20166;SDS011;10243;49.118;8.508;2022-07-29T12:55:38;6.30;;;3.55;;
20166;SDS011;10243;49.118;8.508;2022-07-29T12:58:42;4.32;;;3.65;;
20166;SDS011;10243;49.118;8.508;2022-07-29T13:01:44;4.07;;;3.67;;
20166;SDS011;10243;49.118;8.508;2022-07-29T13:04:54;6.50;;;3.88;;
20166;SDS011;10243;49.118;8.508;2022-07-29T13:08:00;4.63;;;3.83;;
20166;SDS011;10243;49.118;8.508;2022-07-29T13:14:32;6.57;;;3.60;;
20166;SDS011;10243;49.118;8.508;2022-07-29T13:17:39;4.93;;;3.47;;
20166;SDS011;10243;49.118;8.508;2022-07-29T13:20:42;4.70;;;3.17;;
20166;SDS011;10243;49.118;8.508;2022-07-29T13:23:44;5.90;;;3.17;;
20166;SDS011;10243;49.118;8.508;2022-07-29T13:26:46;4.30;;;3.33;;
20166;SDS011;10243;49.118;8.508;2022-07-29T13:29:50;5.05;;;2.95;;
20166;SDS011;10243;49.118;8.508;2022-07-29T13:32:53;4.35;;;3.05;;
20166;SDS011;10243;49.118;8.508;2022-07-29T13:35:55;17.48;;;3.00;;
20166;SDS011;10243;49.118;8.508;2022-07-29T13:38:57;9.07;;;2.70;;
20166;SDS011;10243;49.118;8.508;2022-07-29T13:42:01;3.83;;;2.20;;
20166;SDS011;10243;49.118;8.508;2022-07-29T13:45:05;8.52;;;2.58;;
20166;SDS011;10243;49.118;8.508;2022-07-29T13:48:08;8.90;;;2.92;;
20166;SDS011;10243;49.118;8.508;2022-07-29T13:51:11;4.78;;;2.53;;
20166;SDS011;10243;49.118;8.508;2022-07-29T13:54:13;5.78;;;2.55;;
20166;SDS011;10243;49.118;8.508;2022-07-29T13:57:15;3.90;;;2.33;;
20166;SDS011;10243;49.118;8.508;2022-07-29T14:00:19;6.57;;;2.42;;
20166;SDS011;10243;49.118;8.508;2022-07-29T14:03:21;4.18;;;2.33;;
20166;SDS011;10243;49.118;8.508;2022-07-29T14:06:24;6.13;;;2.10;;
20166;SDS011;10243;49.118;8.508;2022-07-29T14:09:26;6.60;;;2.08;;
20166;SDS011;10243;49.118;8.508;2022-07-29T14:12:29;7.97;;;2.22;;
20166;SDS011;10243;49.118;8.508;2022-07-29T14:15:32;5.53;;;2.00;;
20166;SDS011;10243;49.118;8.508;2022-07-29T14:18:34;8.60;;;2.28;;
20166;SDS011;10243;49.118;8.508;2022-07-29T14:21:37;8.68;;;2.42;;
20166;SDS011;10243;49.118;8.508;2022-07-29T14:24:39;2.35;;;2.05;;
20166;SDS011;10243;49.118;8.508;2022-07-29T14:27:41;8.75;;;2.22;;
20166;SDS011;10243;49.118;8.508;2022-07-29T14:30:45;3.70;;;1.83;;
20166;SDS011;10243;49.118;8.508;2022-07-29T14:33:47;7.30;;;2.22;;
20166;SDS011;10243;49.118;8.508;2022-07-29T14:36:49;7.72;;;2.10;;
20166;SDS011;10243;49.118;8.508;2022-07-29T14:39:55;6.28;;;2.03;;
20166;SDS011;10243;49.118;8.508;2022-07-29T14:42:59;7.22;;;1.88;;
20166;SDS011;10243;49.118;8.508;2022-07-29T14:46:03;5.30;;;1.98;;
20166;SDS011;10243;49.118;8.508;2022-07-29T14:49:05;10.02;;;2.08;;
20166;SDS011;10243;49.118;8.508;2022-07-29T14:52:07;4.78;;;2.03;;
20166;SDS011;10243;49.118;8.508;2022-07-29T14:55:09;2.50;;;2.30;;
20166;SDS011;10243;49.118;8.508;2022-07-29T14:58:12;3.95;;;1.90;;
20166;SDS011;10243;49.118;8.508;2022-07-29T15:01:15;6.55;;;2.20;;
20166;SDS011;10243;49.118;8.508;2022-07-29T15:04:17;5.35;;;2.13;;
20166;SDS011;10243;49.118;8.508;2022-07-29T15:07:20;6.70;;;2.08;;
20166;SDS011;10243;49.118;8.508;2022-07-29T15:10:22;3.42;;;1.90;;
20166;SDS011;10243;49.118;8.508;2022-07-29T15:13:26;7.70;;;2.13;;
20166;SDS011;10243;49.118;8.508;2022-07-29T15:16:29;5.47;;;1.95;;
20166;SDS011;10243;49.118;8.508;2022-07-29T15:19:32;7.30;;;2.13;;
20166;SDS011;10243;49.118;8.508;2022-07-29T15:22:34;3.90;;;2.00;;
20166;SDS011;10243;49.118;8.508;2022-07-29T15:25:38;4.68;;;2.15;;
20166;SDS011;10243;49.118;8.508;2022-07-29T15:28:40;3.67;;;1.85;;
20166;SDS011;10243;49.118;8.508;2022-07-29T15:31:44;1.77;;;1.67;;
20166;SDS011;10243;49.118;8.508;2022-07-29T15:34:46;4.50;;;1.58;;
20166;SDS011;10243;49.118;8.508;2022-07-29T15:37:48;6.70;;;1.67;;
20166;SDS011;10243;49.118;8.508;2022-07-29T15:40:50;4.55;;;2.10;;
20166;SDS011;10243;49.118;8.508;2022-07-29T15:43:53;8.48;;;1.67;;
20166;SDS011;10243;49.118;8.508;2022-07-29T15:46:56;3.33;;;1.98;;
20166;SDS011;10243;49.118;8.508;2022-07-29T15:50:06;3.42;;;1.92;;
20166;SDS011;10243;49.118;8.508;2022-07-29T15:53:13;8.10;;;1.90;;
20166;SDS011;10243;49.118;8.508;2022-07-29T15:56:15;4.47;;;2.00;;
20166;SDS011;10243;49.118;8.508;2022-07-29T15:59:18;4.70;;;1.80;;
20166;SDS011;10243;49.118;8.508;2022-07-29T16:02:21;4.32;;;1.67;;
20166;SDS011;10243;49.118;8.508;2022-07-29T16:05:24;3.92;;;1.65;;
20166;SDS011;10243;49.118;8.508;2022-07-29T16:08:28;2.60;;;1.38;;
20166;SDS011;10243;49.118;8.508;2022-07-29T16:11:31;1.92;;;1.60;;
20166;SDS011;10243;49.118;8.508;2022-07-29T16:14:33;2.80;;;1.40;;
20166;SDS011;10243;49.118;8.508;2022-07-29T16:17:37;2.80;;;1.42;;
20166;SDS011;10243;49.118;8.508;2022-07-29T16:20:40;9.13;;;1.45;;
20166;SDS011;10243;49.118;8.508;2022-07-29T16:23:42;4.55;;;1.40;;
20166;SDS011;10243;49.118;8.508;2022-07-29T16:26:45;2.70;;;1.65;;
20166;SDS011;10243;49.118;8.508;2022-07-29T16:29:49;4.55;;;1.70;;
20166;SDS011;10243;49.118;8.508;2022-07-29T16:32:53;3.15;;;1.58;;
20166;SDS011;10243;49.118;8.508;2022-07-29T16:35:55;12.80;;;1.75;;
20166;SDS011;10243;49.118;8.508;2022-07-29T16:38:57;3.03;;;1.60;;
20166;SDS011;10243;49.118;8.508;2022-07-29T16:41:59;2.95;;;1.58;;
20166;SDS011;10243;49.118;8.508;2022-07-29T16:45:02;2.05;;;1.50;;
20166;SDS011;10243;49.118;8.508;2022-07-29T16:48:06;6.63;;;1.50;;
20166;SDS011;10243;49.118;8.508;2022-07-29T16:51:08;6.95;;;1.50;;
20166;SDS011;10243;49.118;8.508;2022-07-29T16:54:10;2.33;;;1.30;;
20166;SDS011;10243;49.118;8.508;2022-07-29T16:57:12;5.72;;;1.60;;
20166;SDS011;10243;49.118;8.508;2022-07-29T17:00:15;3.15;;;1.58;;
20166;SDS011;10243;49.118;8.508;2022-07-29T17:03:19;3.45;;;1.77;;
20166;SDS011;10243;49.118;8.508;2022-07-29T17:06:21;4.45;;;1.45;;
20166;SDS011;10243;49.118;8.508;2022-07-29T17:09:24;3.60;;;1.60;;
20166;SDS011;10243;49.118;8.508;2022-07-29T17:12:26;10.68;;;1.48;;
20166;SDS011;10243;49.118;8.508;2022-07-29T17:15:28;5.88;;;1.60;;
20166;SDS011;10243;49.118;8.508;2022-07-29T17:18:32;3.60;;;1.60;;
20166;SDS011;10243;49.118;8.508;2022-07-29T17:21:34;3.35;;;1.70;;
20166;SDS011;10243;49.118;8.508;2022-07-29T17:24:36;2.97;;;1.70;;
20166;SDS011;10243;49.118;8.508;2022-07-29T17:27:39;3.13;;;1.67;;
20166;SDS011;10243;49.118;8.508;2022-07-29T17:30:41;2.35;;;1.92;;
20166;SDS011;10243;49.118;8.508;2022-07-29T17:33:45;2.42;;;1.73;;
20166;SDS011;10243;49.118;8.508;2022-07-29T17:36:47;2.65;;;1.90;;
20166;SDS011;10243;49.118;8.508;2022-07-29T17:39:49;9.50;;;2.22;;
20166;SDS011;10243;49.118;8.508;2022-07-29T17:42:52;2.33;;;2.08;;
20166;SDS011;10243;49.118;8.508;2022-07-29T17:45:54;4.95;;;1.70;;
20166;SDS011;10243;49.118;8.508;2022-07-29T17:48:57;5.05;;;2.47;;
20166;SDS011;10243;49.118;8.508;2022-07-29T17:51:59;4.55;;;1.77;;
20166;SDS011;10243;49.118;8.508;2022-07-29T17:55:02;2.40;;;1.52;;
20166;SDS011;10243;49.118;8.508;2022-07-29T17:58:04;6.15;;;1.85;;
20166;SDS011;10243;49.118;8.508;2022-07-29T18:01:08;7.18;;;1.70;;
20166;SDS011;10243;49.118;8.508;2022-07-29T18:04:11;6.60;;;2.42;;
20166;SDS011;10243;49.118;8.508;2022-07-29T18:07:14;4.32;;;2.15;;
20166;SDS011;10243;49.118;8.508;2022-07-29T18:10:17;4.03;;;1.70;;
20166;SDS011;10243;49.118;8.508;2022-07-29T18:13:19;4.38;;;2.10;;
20166;SDS011;10243;49.118;8.508;2022-07-29T18:16:22;33.40;;;3.15;;
20166;SDS011;10243;49.118;8.508;2022-07-29T18:19:25;11.48;;;3.45;;
20166;SDS011;10243;49.118;8.508;2022-07-29T18:22:28;5.50;;;2.50;;
20166;SDS011;10243;49.118;8.508;2022-07-29T18:25:31;6.72;;;1.70;;
20166;SDS011;10243;49.118;8.508;2022-07-29T18:28:33;5.97;;;1.65;;
20166;SDS011;10243;49.118;8.508;2022-07-29T18:31:35;6.43;;;2.40;;
20166;SDS011;10243;49.118;8.508;2022-07-29T18:34:41;5.15;;;2.22;;
20166;SDS011;10243;49.118;8.508;2022-07-29T18:37:43;4.95;;;2.00;;
20166;SDS011;10243;49.118;8.508;2022-07-29T18:40:46;4.43;;;1.98;;
20166;SDS011;10243;49.118;8.508;2022-07-29T18:43:48;5.97;;;1.90;;
20166;SDS011;10243;49.118;8.508;2022-07-29T18:46:50;3.05;;;2.00;;